< < Back
Terminal Aerodrome Forecast


Current Version              Previous Versions:   1  2  3  4  5  6  7  8  9  

Terminal Aerodrome Forecast

992
FTUS42 KTAE 231000 AAB
TAFTLH
TAF AMD
KTLH 231001Z 2310/2406 04005KT P6SM SCT030
      TEMPO 2311/2315 BKN025
     FM231500 05010KT P6SM SCT025
     FM231800 04012G18KT P6SM SCT040 SCT250
     FM240300 06008KT P6SM SCT250=

Latest METAR

026
SAUS80 KWBC 232200 RRA
MTRTLH
METAR KTLH 232153Z 03007KT 10SM FEW043 28/18 A3002 RMK AO2 SLP165
T02830178


USA.gov is the U.S. government's official web portal to all federal, state and local government web resources and services.